Time;durP1;ratioP1;P1;durP2;ratioP2;P2;SDS_P1;SDS_P2;PMS_P1;PMS_P2;Temp;Humidity;BMP_temperature;BMP_pressure;BME280_temperature;BME280_humidity;BME280_pressure;Samples;Min_cycle;Max_cycle;Signal;HPM_P1;HPM_P2
2021/05/11 00:05:14;;;;;;;2.33;0.80;;;17.20;68.30;;;;;;20566731;28;20038;-75
2021/05/11 00:15:15;;;;;;;2.90;0.90;;;17.40;68.30;;;;;;20566795;28;20077;-75
2021/05/11 00:25:16;;;;;;;1.05;0.65;;;17.20;68.30;;;;;;20570385;28;20441;-75
2021/05/11 00:35:17;;;;;;;1.38;0.63;;;17.20;68.40;;;;;;20564437;28;20089;-75
2021/05/11 00:45:17;;;;;;;1.75;0.68;;;17.20;68.50;;;;;;20595592;28;20038;-74
2021/05/11 00:55:18;;;;;;;0.73;0.45;;;17.20;68.50;;;;;;20594451;28;20401;-74
2021/05/11 01:05:18;;;;;;;2.05;0.73;;;17.20;68.60;;;;;;20578586;28;20474;-74
2021/05/11 01:15:19;;;;;;;0.88;0.43;;;17.20;68.60;;;;;;20593441;28;20126;-75
2021/05/11 01:25:27;;;;;;;0.50;0.47;;;17.20;68.60;;;;;;20576223;28;20150;-74
2021/05/11 01:46:17;;;;;;;1.42;0.70;;;17.20;68.50;;;;;;20591516;28;20031;-75
2021/05/11 01:56:32;;;;;;;0.53;0.50;;;17.20;68.60;;;;;;20605231;28;20094;-74
2021/05/11 02:27:11;;;;;;;0.80;0.60;;;17.20;68.40;;;;;;20573900;28;20039;-75
2021/05/11 02:37:12;;;;;;;0.60;0.40;;;17.20;68.40;;;;;;20570668;28;20031;-74
2021/05/11 02:47:13;;;;;;;0.88;0.50;;;17.20;68.30;;;;;;20585065;28;20085;-78
2021/05/11 02:57:14;;;;;;;1.38;0.55;;;17.20;68.20;;;;;;20569752;28;20043;-75
2021/05/11 03:07:15;;;;;;;0.80;0.40;;;17.20;68.20;;;;;;20585490;28;20045;-76
2021/05/11 03:17:16;;;;;;;0.82;0.60;;;17.10;68.10;;;;;;20567542;28;20600;-75
2021/05/11 03:27:17;;;;;;;0.32;0.32;;;17.10;68.10;;;;;;20567190;28;20038;-81
2021/05/11 03:37:17;;;;;;;1.75;0.60;;;17.10;68.10;;;;;;20583776;28;20030;-75
2021/05/11 03:47:20;;;;;;;0.55;0.55;;;17.10;68.10;;;;;;20567290;28;20058;-74
2021/05/11 03:57:21;;;;;;;0.88;0.43;;;17.10;68.10;;;;;;20551959;28;20043;-74
2021/05/11 04:07:21;;;;;;;0.55;0.40;;;17.00;68.10;;;;;;20597187;28;20496;-74
2021/05/11 04:17:22;;;;;;;0.60;0.40;;;17.10;68.10;;;;;;20580618;28;20038;-74
2021/05/11 04:27:22;;;;;;;0.73;0.60;;;17.10;68.10;;;;;;20596716;28;20085;-74
2021/05/11 04:37:23;;;;;;;0.70;0.50;;;17.10;68.00;;;;;;20595080;28;20481;-74
2021/05/11 04:57:43;;;;;;;0.80;0.50;;;17.10;68.10;;;;;;20594659;28;20150;-75
2021/05/11 05:07:43;;;;;;;1.00;0.73;;;17.10;68.00;;;;;;20584578;28;20458;-76
2021/05/11 05:17:44;;;;;;;0.88;0.73;;;17.10;68.00;;;;;;20655164;28;20464;-74
2021/05/11 05:37:45;;;;;;;1.27;0.50;;;17.00;67.90;;;;;;20642833;28;20069;-83
2021/05/11 05:47:50;;;;;;;2.15;0.80;;;17.10;68.00;;;;;;20642259;28;20088;-82
2021/05/11 05:57:51;;;;;;;1.55;0.80;;;17.10;68.20;;;;;;20621502;28;20042;-75
2021/05/11 06:07:52;;;;;;;0.50;0.50;;;17.20;68.30;;;;;;20571297;28;20134;-77
2021/05/11 06:17:53;;;;;;;0.70;0.63;;;17.10;68.30;;;;;;20550545;28;20035;-74
2021/05/11 06:27:58;;;;;;;0.73;0.60;;;17.20;68.40;;;;;;20469812;28;20070;-71
2021/05/11 06:37:59;;;;;;;0.70;0.60;;;17.20;68.50;;;;;;20468251;28;20741;-80
2021/05/11 06:58:19;;;;;;;1.90;0.80;;;17.20;68.70;;;;;;20343189;28;20618;-78
2021/05/11 07:08:33;;;;;;;1.10;0.60;;;17.20;68.80;;;;;;20383950;28;20262;-78
2021/05/11 07:18:35;;;;;;;3.80;0.80;;;17.20;68.80;;;;;;20367708;28;20160;-79
2021/05/11 07:38:56;;;;;;;2.80;1.00;;;17.20;68.90;;;;;;20405554;28;20038;-79
2021/05/11 08:29:58;;;;;;;5.32;0.63;;;17.20;69.00;;;;;;20422301;28;20030;-79
2021/05/11 08:40:00;;;;;;;2.47;0.90;;;17.20;69.00;;;;;;20416907;28;20835;-80
2021/05/11 08:50:01;;;;;;;2.08;0.82;;;17.20;69.00;;;;;;20807008;23;20374;-74
2021/05/11 09:31:02;;;;;;;1.25;0.50;;;17.20;68.60;;;;;;20421717;28;20034;-73
2021/05/11 10:13:33;;;;;;;1.63;0.90;;;17.30;68.50;;;;;;20517279;28;20039;-78
2021/05/11 10:53:45;;;;;;;2.08;0.70;;;17.30;69.10;;;;;;20590138;28;20049;-74
2021/05/11 11:04:10;;;;;;;3.38;0.63;;;17.40;68.40;;;;;;20632472;28;20507;-73
2021/05/11 11:14:10;;;;;;;1.98;0.63;;;17.30;68.50;;;;;;20641167;28;20149;-74
2021/05/11 11:24:11;;;;;;;1.52;0.40;;;17.40;68.50;;;;;;20624936;28;20109;-75
2021/05/11 11:34:19;;;;;;;2.87;0.70;;;17.40;68.50;;;;;;20631273;28;20085;-74
2021/05/11 11:44:21;;;;;;;1.15;0.50;;;17.40;68.50;;;;;;20415804;28;20281;-78
2021/05/11 11:54:33;;;;;;;1.45;0.60;;;17.40;68.50;;;;;;20434507;28;20035;-80
2021/05/11 12:04:38;;;;;;;0.50;0.50;;;17.40;68.40;;;;;;20505867;28;20054;-75
2021/05/11 12:14:39;;;;;;;0.97;0.70;;;17.40;68.40;;;;;;20603823;28;20034;-74
2021/05/11 12:24:44;;;;;;;1.98;0.70;;;17.40;68.40;;;;;;20610919;28;20038;-74
2021/05/11 12:34:44;;;;;;;2.05;0.73;;;17.40;68.40;;;;;;20627334;28;20109;-77
2021/05/11 12:45:05;;;;;;;1.13;0.50;;;17.40;68.50;;;;;;20582943;28;20126;-75
2021/05/11 12:55:18;;;;;;;1.50;0.73;;;17.40;68.60;;;;;;20593141;28;20452;-74
2021/05/11 13:16:09;;;;;;;3.20;1.30;;;17.40;68.70;;;;;;20601401;28;20065;-70
2021/05/11 13:26:22;;;;;;;1.77;1.00;;;17.40;68.90;;;;;;20582713;28;20043;-74
2021/05/11 13:36:22;;;;;;;1.67;0.77;;;17.50;69.10;;;;;;20571218;28;20342;-72
2021/05/11 13:46:23;;;;;;;3.72;1.00;;;17.40;69.10;;;;;;20603283;28;20480;-71
2021/05/11 13:56:48;;;;;;;3.20;1.40;;;17.30;69.20;;;;;;20542059;28;20556;-74
2021/05/11 14:06:49;;;;;;;2.65;1.50;;;17.40;69.30;;;;;;20638529;28;20290;-71
2021/05/11 14:16:50;;;;;;;3.20;1.10;;;17.40;69.50;;;;;;20634883;28;20185;-72
2021/05/11 14:26:51;;;;;;;2.07;1.03;;;17.40;70.20;;;;;;20570236;28;20557;-74
2021/05/11 14:36:52;;;;;;;2.92;0.85;;;17.30;69.70;;;;;;20569383;28;20302;-73
2021/05/11 14:46:53;;;;;;;1.90;0.90;;;17.30;69.90;;;;;;20584497;28;20073;-79
2021/05/11 14:56:53;;;;;;;1.63;0.87;;;17.30;69.90;;;;;;20570873;28;20085;-74
2021/05/11 15:06:54;;;;;;;4.72;1.00;;;17.40;70.20;;;;;;20568590;28;20298;-80
2021/05/11 15:17:08;;;;;;;8.63;1.33;;;17.40;70.40;;;;;;20548125;28;20061;-76
2021/05/11 15:27:09;;;;;;;3.88;1.25;;;17.40;70.60;;;;;;20569916;28;20041;-72
2021/05/11 15:37:10;;;;;;;3.38;0.90;;;17.40;70.70;;;;;;20580354;28;20126;-71
2021/05/11 15:47:10;;;;;;;4.15;1.40;;;17.30;70.70;;;;;;20578333;28;20023;-72
2021/05/11 15:57:11;;;;;;;1.73;1.10;;;17.40;71.50;;;;;;20617116;28;20049;-74
2021/05/11 16:07:12;;;;;;;2.42;0.85;;;17.40;71.00;;;;;;20561265;28;20317;-73
2021/05/11 16:17:13;;;;;;;2.28;1.13;;;17.40;71.10;;;;;;20607228;28;20078;-73
2021/05/11 16:27:13;;;;;;;3.73;1.00;;;17.30;71.00;;;;;;20638552;28;20473;-73
2021/05/11 16:37:14;;;;;;;1.83;1.03;;;17.40;71.10;;;;;;20654603;28;20360;-78
2021/05/11 16:47:15;;;;;;;3.28;1.73;;;17.40;71.20;;;;;;20667109;28;20285;-74
2021/05/11 16:57:17;;;;;;;3.22;1.08;;;17.30;71.10;;;;;;20650800;28;20038;-72
2021/05/11 17:07:17;;;;;;;4.85;1.13;;;17.40;71.20;;;;;;20667291;28;20038;-71
2021/05/11 17:17:18;;;;;;;2.78;1.00;;;17.30;71.10;;;;;;20626249;28;20514;-72
2021/05/11 17:27:18;;;;;;;1.23;0.80;;;17.40;71.10;;;;;;20633456;28;20079;-72
2021/05/11 17:37:19;;;;;;;1.05;0.73;;;17.40;71.10;;;;;;20666159;28;20046;-72
2021/05/11 17:47:20;;;;;;;2.87;0.77;;;17.30;71.10;;;;;;20633328;28;20441;-72
2021/05/11 17:57:20;;;;;;;2.30;0.90;;;17.30;71.00;;;;;;20663966;28;20305;-73
2021/05/11 18:07:21;;;;;;;1.23;0.90;;;17.30;71.00;;;;;;20663839;28;20030;-74
2021/05/11 18:17:22;;;;;;;1.52;0.60;;;17.30;70.90;;;;;;20620570;28;20069;-74
2021/05/11 18:27:23;;;;;;;2.72;0.80;;;17.30;70.90;;;;;;20654980;28;20065;-70
2021/05/11 18:37:28;;;;;;;3.00;0.70;;;17.30;70.90;;;;;;20647341;28;20042;-71
2021/05/11 18:47:30;;;;;;;1.60;0.70;;;17.30;70.80;;;;;;20618877;28;20326;-73
2021/05/11 18:57:31;;;;;;;2.50;0.70;;;17.30;70.90;;;;;;20626130;28;20109;-72
2021/05/11 19:07:32;;;;;;;2.05;0.70;;;17.20;70.80;;;;;;20658177;28;20141;-72
2021/05/11 19:17:33;;;;;;;1.42;0.70;;;17.30;70.80;;;;;;20651285;28;20046;-71
2021/05/11 19:27:38;;;;;;;3.22;0.77;;;17.40;70.80;;;;;;20610159;28;20061;-73
2021/05/11 19:37:39;;;;;;;0.90;0.70;;;17.30;70.80;;;;;;20646036;28;20453;-74
2021/05/11 19:47:40;;;;;;;1.15;0.60;;;17.20;70.70;;;;;;20667520;28;20109;-74
2021/05/11 19:57:40;;;;;;;1.07;0.70;;;17.20;70.70;;;;;;20567985;28;20166;-73
2021/05/11 20:07:41;;;;;;;5.47;0.70;;;17.20;70.80;;;;;;20617182;28;20290;-74
2021/05/11 20:17:42;;;;;;;1.35;0.50;;;17.20;70.70;;;;;;20565453;28;20298;-74
2021/05/11 20:27:43;;;;;;;0.95;0.80;;;17.20;71.30;;;;;;20565546;28;20030;-74
2021/05/11 20:37:48;;;;;;;0.52;0.47;;;17.10;70.60;;;;;;20638610;28;20400;-75
2021/05/11 20:47:59;;;;;;;0.85;0.60;;;17.10;70.50;;;;;;20637521;28;20080;-74
2021/05/11 20:58:00;;;;;;;0.75;0.60;;;17.10;70.40;;;;;;20669352;28;20481;-74
2021/05/11 21:08:02;;;;;;;1.85;0.80;;;17.10;70.40;;;;;;20652350;28;20041;-74
2021/05/11 21:18:03;;;;;;;2.15;0.90;;;17.10;70.30;;;;;;20616073;28;20031;-74
2021/05/11 21:28:03;;;;;;;1.48;0.80;;;17.10;70.30;;;;;;20589432;28;20515;-74
2021/05/11 21:38:05;;;;;;;0.65;0.60;;;17.00;70.20;;;;;;20592590;28;20060;-75
2021/05/11 21:48:06;;;;;;;2.08;0.68;;;17.00;70.20;;;;;;20632084;28;20133;-75
2021/05/11 21:58:07;;;;;;;1.00;0.45;;;17.00;70.30;;;;;;20631522;28;20050;-74
2021/05/11 22:08:08;;;;;;;1.92;0.80;;;17.00;70.30;;;;;;20632728;28;20054;-75
2021/05/11 22:18:09;;;;;;;0.77;0.60;;;16.90;70.30;;;;;;20647497;28;20042;-75
2021/05/11 22:28:10;;;;;;;1.42;0.80;;;17.00;71.10;;;;;;20630093;28;20042;-75
2021/05/11 22:38:11;;;;;;;0.70;0.70;;;16.90;70.40;;;;;;20630120;28;20121;-75
2021/05/11 22:48:12;;;;;;;1.38;0.73;;;16.90;70.40;;;;;;20644135;28;20058;-74
2021/05/11 22:58:13;;;;;;;1.27;0.80;;;16.90;70.50;;;;;;20644484;28;20625;-75
2021/05/11 23:08:13;;;;;;;2.40;0.90;;;16.90;70.50;;;;;;20627754;28;20022;-74
2021/05/11 23:18:23;;;;;;;2.63;1.73;;;16.90;70.50;;;;;;20643432;28;20294;-74
2021/05/11 23:28:23;;;;;;;2.05;1.23;;;16.80;70.40;;;;;;20630187;28;20563;-74
2021/05/11 23:38:24;;;;;;;1.25;0.90;;;16.80;70.50;;;;;;20657178;28;20046;-74
2021/05/11 23:48:24;;;;;;;2.10;1.13;;;16.80;70.50;;;;;;20641507;28;20146;-74
2021/05/11 23:58:25;;;;;;;2.03;1.20;;;16.80;70.50;;;;;;20641268;28;20393;-74
